Deale, Maryland
Current Conditions -  °F | °C
As of 4:54 PM on Thursday 23 Oct 2014 (Local Time) from KNAK Reporting Station
Overcast Overcast  
Wind Chill: 62°   Ceiling: 4900
Heat Index: 62°   Visibility: 10mi
Dew Point: 46°   Wind: 10mph
Humidity: 56%   Direction: 300°WNW
Pressure: 29.81"   Gusts: NA
Location:  38.78°N, 76.55°W
Report Text: KNAK 232054Z AUTO 30009KT 10SM BKN049 OVC060 17/08 A2981 RMK AO2 SLP096 T01670078 58004
Loading
Personal Weather Stations






























Interactive Weather Map
Tropical Storm Tracking
New forecast layout! Learn more

10-Day Weather Forecast

Advertisements
Track Severe Weather on mobile